Time;durP1;ratioP1;P1;durP2;ratioP2;P2;SDS_P1;SDS_P2;PMS_P1;PMS_P2;Temp;Humidity;BMP_temperature;BMP_pressure;BME280_temperature;BME280_humidity;BME280_pressure;Samples;Min_cycle;Max_cycle;Signal;HPM_P1;HPM_P2
2023/05/27 00:02:13;;;;;;;209.65;61.85;;;15.40;99.90;;;;;;5027610;28;20088;-75
2023/05/27 00:04:41;;;;;;;190.65;56.95;;;15.40;99.90;;;;;;5026456;28;20037;-78
2023/05/27 00:07:09;;;;;;;193.93;54.47;;;15.30;99.90;;;;;;5029067;28;20052;-77
2023/05/27 00:09:36;;;;;;;162.23;48.72;;;15.30;99.90;;;;;;5027147;28;20048;-76
2023/05/27 00:12:04;;;;;;;151.57;47.22;;;15.30;99.90;;;;;;5026309;28;20045;-75
2023/05/27 00:14:31;;;;;;;147.10;46.83;;;15.30;99.90;;;;;;5028341;28;20119;-76
2023/05/27 00:16:59;;;;;;;148.27;47.50;;;15.30;99.90;;;;;;5028409;28;20092;-76
2023/05/27 00:19:29;;;;;;;167.95;56.50;;;15.30;99.90;;;;;;5027215;28;20045;-75
2023/05/27 00:21:56;;;;;;;169.60;56.03;;;15.30;99.90;;;;;;5024769;28;20124;-78
2023/05/27 00:24:24;;;;;;;170.10;55.38;;;15.30;99.90;;;;;;5026014;28;20052;-75
2023/05/27 00:26:52;;;;;;;174.75;59.50;;;15.30;99.90;;;;;;5027485;28;20045;-77
2023/05/27 00:29:20;;;;;;;186.38;62.20;;;15.30;99.90;;;;;;5026843;28;20033;-78
2023/05/27 00:31:47;;;;;;;188.52;57.97;;;15.30;99.90;;;;;;5010109;28;20072;-77
2023/05/27 00:34:14;;;;;;;186.82;61.28;;;15.30;99.90;;;;;;5024870;28;20042;-75
2023/05/27 00:36:43;;;;;;;201.38;63.58;;;15.20;99.90;;;;;;5034880;28;20124;-75
2023/05/27 00:39:11;;;;;;;218.02;67.55;;;15.20;99.90;;;;;;5009057;28;20041;-75
2023/05/27 00:41:39;;;;;;;212.48;65.95;;;15.20;99.90;;;;;;5027463;28;20042;-76
2023/05/27 00:44:06;;;;;;;210.85;67.00;;;15.20;99.90;;;;;;5009150;28;20133;-79
2023/05/27 00:46:34;;;;;;;207.77;61.90;;;15.20;99.90;;;;;;5009087;28;20053;-77
2023/05/27 00:49:02;;;;;;;204.77;58.00;;;15.20;99.90;;;;;;5037244;28;20092;-77
2023/05/27 00:51:31;;;;;;;208.27;59.92;;;15.20;99.90;;;;;;5030344;28;20123;-75
2023/05/27 00:53:59;;;;;;;228.68;63.20;;;15.20;99.90;;;;;;5006911;28;20514;-78
2023/05/27 00:56:27;;;;;;;231.38;65.15;;;15.20;99.90;;;;;;5007537;28;20153;-75
2023/05/27 00:58:55;;;;;;;222.57;63.42;;;15.20;99.90;;;;;;5013639;28;20053;-76
2023/05/27 01:01:25;;;;;;;207.73;62.53;;;15.20;99.90;;;;;;5006790;28;20128;-76
2023/05/27 01:03:53;;;;;;;184.65;57.75;;;15.10;99.90;;;;;;5006881;28;20046;-77
2023/05/27 01:06:40;;;;;;;152.10;50.75;;;15.20;99.90;;;;;;4996681;28;20114;-74
2023/05/27 01:09:18;;;;;;;113.75;45.70;;;15.10;99.90;;;;;;5003793;28;20515;-78
2023/05/27 01:11:52;;;;;;;101.82;44.70;;;15.10;99.90;;;;;;5025868;28;20055;-76
2023/05/27 01:14:22;;;;;;;90.05;40.40;;;15.10;99.90;;;;;;5026385;28;20050;-76
2023/05/27 01:16:52;;;;;;;91.10;41.38;;;15.00;99.90;;;;;;5027163;28;20493;-77
2023/05/27 01:19:31;;;;;;;76.72;37.28;;;14.90;99.90;;;;;;5017716;28;20076;-78
2023/05/27 01:22:01;;;;;;;75.38;37.85;;;15.00;99.90;;;;;;5008688;28;20054;-75
2023/05/27 01:24:30;;;;;;;67.38;36.85;;;15.00;99.90;;;;;;5024809;28;20049;-77
2023/05/27 01:27:01;;;;;;;54.78;32.38;;;15.00;99.90;;;;;;5027137;28;20049;-75
2023/05/27 01:29:28;;;;;;;57.05;33.03;;;15.00;99.90;;;;;;5008733;28;20042;-75
2023/05/27 01:32:02;;;;;;;57.22;34.47;;;15.00;99.90;;;;;;5027254;28;20042;-75
2023/05/27 01:34:37;;;;;;;65.50;33.92;;;15.00;99.90;;;;;;5017773;28;20498;-76
2023/05/27 01:37:09;;;;;;;61.63;34.42;;;15.00;99.90;;;;;;5010038;28;20045;-78
2023/05/27 01:39:38;;;;;;;64.50;35.20;;;15.00;99.90;;;;;;5026494;28;20051;-75
2023/05/27 01:42:07;;;;;;;53.85;31.08;;;15.00;99.90;;;;;;5027019;28;20049;-75
2023/05/27 01:44:35;;;;;;;63.42;33.97;;;15.00;99.90;;;;;;5009562;28;20493;-77
2023/05/27 01:47:03;;;;;;;73.95;35.45;;;15.00;99.90;;;;;;5010300;28;20489;-77
2023/05/27 01:49:31;;;;;;;74.60;36.65;;;15.10;99.90;;;;;;5027534;28;20042;-77
2023/05/27 01:51:58;;;;;;;77.75;37.35;;;15.10;99.90;;;;;;5027857;28;20065;-77
2023/05/27 01:54:26;;;;;;;72.78;35.45;;;15.10;99.90;;;;;;5026425;28;20521;-78
2023/05/27 01:56:55;;;;;;;67.72;34.88;;;15.10;99.90;;;;;;5010800;28;20037;-78
2023/05/27 01:59:22;;;;;;;66.68;33.40;;;15.10;99.90;;;;;;5011572;28;20126;-77
2023/05/27 02:01:51;;;;;;;70.68;34.92;;;15.10;99.90;;;;;;5012643;28;20052;-78
2023/05/27 02:04:19;;;;;;;68.80;35.33;;;15.10;99.90;;;;;;5012836;28;20626;-76
2023/05/27 02:06:46;;;;;;;68.35;33.67;;;15.00;99.90;;;;;;5030665;28;20059;-76
2023/05/27 02:09:14;;;;;;;75.30;34.83;;;15.10;99.90;;;;;;5012036;28;20045;-76
2023/05/27 02:11:41;;;;;;;62.78;32.55;;;15.10;99.90;;;;;;5028684;28;20493;-74
2023/05/27 02:14:10;;;;;;;62.72;33.35;;;15.00;99.90;;;;;;5004970;28;20080;-77
2023/05/27 02:16:39;;;;;;;57.17;29.98;;;15.00;99.90;;;;;;5029205;28;20050;-75
2023/05/27 02:19:07;;;;;;;49.85;29.20;;;15.00;99.90;;;;;;5012463;28;20047;-76
2023/05/27 02:21:35;;;;;;;57.30;30.42;;;15.00;99.90;;;;;;5032093;28;20060;-77
2023/05/27 02:24:03;;;;;;;55.67;31.77;;;15.00;99.90;;;;;;5046826;28;20455;-75
2023/05/27 02:26:30;;;;;;;56.40;31.00;;;14.90;99.90;;;;;;5056935;28;20207;-75
2023/05/27 02:28:57;;;;;;;61.83;32.42;;;14.90;99.90;;;;;;5055889;28;20038;-78
2023/05/27 02:31:26;;;;;;;57.95;31.17;;;14.80;99.90;;;;;;5038180;28;20045;-77
2023/05/27 02:33:54;;;;;;;57.97;31.50;;;14.80;99.90;;;;;;5039167;28;20046;-77
2023/05/27 02:36:23;;;;;;;56.70;31.17;;;14.80;99.90;;;;;;5038903;28;20044;-76
2023/05/27 02:38:51;;;;;;;55.95;30.80;;;14.70;99.90;;;;;;5039254;28;20048;-76
2023/05/27 02:41:19;;;;;;;60.17;30.17;;;14.70;99.90;;;;;;5037113;28;20044;-76
2023/05/27 02:43:46;;;;;;;61.22;31.30;;;14.60;99.90;;;;;;5039574;28;20044;-76
2023/05/27 02:46:14;;;;;;;65.63;32.60;;;14.70;99.90;;;;;;5037206;28;20401;-77
2023/05/27 02:48:43;;;;;;;64.78;32.35;;;14.70;99.90;;;;;;5054291;28;20044;-76
2023/05/27 02:51:10;;;;;;;71.95;33.13;;;14.70;99.90;;;;;;5038260;28;20137;-75
2023/05/27 02:53:38;;;;;;;63.08;30.48;;;14.70;99.90;;;;;;5038072;28;20496;-75
2023/05/27 02:56:06;;;;;;;51.67;28.58;;;14.80;99.90;;;;;;5038800;28;20037;-76
2023/05/27 02:58:33;;;;;;;53.83;29.10;;;14.80;99.90;;;;;;5052414;28;20041;-77
2023/05/27 03:01:01;;;;;;;48.30;27.77;;;14.80;99.90;;;;;;5037781;28;20038;-76
2023/05/27 03:03:29;;;;;;;61.58;33.88;;;14.80;99.90;;;;;;5038759;28;20132;-78
2023/05/27 03:05:58;;;;;;;82.95;39.00;;;14.80;99.90;;;;;;5038221;28;20102;-76
2023/05/27 03:08:25;;;;;;;91.15;41.20;;;14.80;99.90;;;;;;5034102;28;20037;-75
2023/05/27 03:10:53;;;;;;;90.13;40.05;;;14.90;99.90;;;;;;5055250;28;20485;-75
2023/05/27 03:13:21;;;;;;;87.53;38.33;;;14.80;99.90;;;;;;5038716;28;20041;-76
2023/05/27 03:15:49;;;;;;;60.50;31.42;;;14.80;99.90;;;;;;5054655;28;20041;-76
2023/05/27 03:18:17;;;;;;;56.25;29.33;;;14.90;99.90;;;;;;5037739;28;20037;-76
2023/05/27 03:20:45;;;;;;;60.70;32.58;;;14.90;99.90;;;;;;5038251;28;20119;-77
2023/05/27 03:23:13;;;;;;;59.42;31.80;;;14.90;99.90;;;;;;5038388;28;20049;-75
2023/05/27 03:25:41;;;;;;;61.55;31.13;;;14.90;99.90;;;;;;5038263;28;20111;-75
2023/05/27 03:28:09;;;;;;;62.78;31.50;;;15.00;99.90;;;;;;5038162;28;20680;-77
2023/05/27 03:30:38;;;;;;;66.20;32.97;;;15.00;99.90;;;;;;5036623;28;20111;-75
2023/05/27 03:33:05;;;;;;;55.58;31.15;;;15.00;99.90;;;;;;5053912;28;20064;-75
2023/05/27 03:35:38;;;;;;;58.95;32.03;;;15.00;99.90;;;;;;5036143;28;20048;-76
2023/05/27 03:38:06;;;;;;;63.88;33.53;;;15.00;99.90;;;;;;5055157;28;20041;-77
2023/05/27 03:40:36;;;;;;;65.43;32.85;;;15.00;99.90;;;;;;5023123;28;20104;-77
2023/05/27 03:43:07;;;;;;;69.10;35.80;;;15.10;99.90;;;;;;5024303;28;20034;-76
2023/05/27 03:45:35;;;;;;;67.65;35.33;;;15.00;99.90;;;;;;5056953;28;20049;-75
2023/05/27 03:48:02;;;;;;;66.57;34.03;;;15.10;99.90;;;;;;5054354;28;20057;-76
2023/05/27 03:50:30;;;;;;;71.43;34.72;;;15.20;99.90;;;;;;5038611;28;20041;-75
2023/05/27 03:52:57;;;;;;;72.70;36.22;;;15.20;99.90;;;;;;5033769;28;20063;-77
2023/05/27 03:55:25;;;;;;;69.20;34.70;;;15.20;99.90;;;;;;5055067;28;20051;-77
2023/05/27 03:57:54;;;;;;;68.05;33.97;;;15.20;99.90;;;;;;5039282;28;20139;-76
2023/05/27 04:00:21;;;;;;;71.93;34.70;;;15.20;99.90;;;;;;5046728;28;20472;-77
2023/05/27 04:02:49;;;;;;;76.47;36.03;;;15.30;99.90;;;;;;5038429;28;20037;-77
2023/05/27 04:05:18;;;;;;;81.07;38.55;;;15.30;99.90;;;;;;5037529;28;20045;-80
2023/05/27 04:07:45;;;;;;;78.65;39.58;;;15.30;99.90;;;;;;5038206;28;20104;-78
2023/05/27 04:10:12;;;;;;;73.28;38.13;;;15.30;99.90;;;;;;5041340;28;20056;-76
2023/05/27 04:12:41;;;;;;;70.68;37.67;;;15.40;99.90;;;;;;5054851;28;20064;-78
2023/05/27 04:15:11;;;;;;;79.32;38.97;;;15.50;99.90;;;;;;5051480;28;20064;-76
2023/05/27 04:17:38;;;;;;;81.65;40.72;;;15.50;99.90;;;;;;5037012;28;20132;-77
2023/05/27 04:20:13;;;;;;;110.72;50.30;;;15.60;99.90;;;;;;5035936;28;20118;-75
2023/05/27 04:22:43;;;;;;;107.53;49.13;;;15.70;99.90;;;;;;5062244;28;20058;-77
2023/05/27 04:25:11;;;;;;;115.07;53.50;;;15.70;99.90;;;;;;5052989;28;20051;-77
2023/05/27 04:27:58;;;;;;;127.00;55.75;;;15.80;99.90;;;;;;5061947;28;20125;-77
2023/05/27 04:30:26;;;;;;;127.53;57.40;;;15.80;99.90;;;;;;5035438;28;20052;-77
2023/05/27 04:32:56;;;;;;;145.05;63.55;;;15.90;99.90;;;;;;5036332;28;20052;-77
2023/05/27 04:35:24;;;;;;;141.77;63.30;;;15.90;99.90;;;;;;5035411;28;20400;-78
2023/05/27 04:37:52;;;;;;;132.75;61.20;;;16.00;99.90;;;;;;5036027;28;20127;-76
2023/05/27 04:40:20;;;;;;;143.77;62.88;;;16.00;99.90;;;;;;5052653;28;20034;-75
2023/05/27 04:43:14;;;;;;;131.05;58.42;;;16.00;99.90;;;;;;5033730;28;20127;-77
2023/05/27 04:45:43;;;;;;;133.73;57.33;;;16.00;99.90;;;;;;5052996;28;20095;-78
2023/05/27 04:48:12;;;;;;;125.38;54.35;;;15.90;99.90;;;;;;5036114;28;20068;-78
2023/05/27 04:50:40;;;;;;;114.88;49.10;;;15.80;99.90;;;;;;5037214;28;20041;-78
2023/05/27 04:53:08;;;;;;;104.13;44.88;;;15.80;99.90;;;;;;5037900;28;20076;-77
2023/05/27 04:55:38;;;;;;;107.78;48.40;;;15.80;99.90;;;;;;5037475;28;20098;-75
2023/05/27 04:58:06;;;;;;;101.43;45.55;;;15.90;99.90;;;;;;5052222;28;20098;-75
2023/05/27 05:00:49;;;;;;;92.15;40.97;;;16.00;99.90;;;;;;5051410;28;20049;-76
2023/05/27 05:03:21;;;;;;;89.35;40.85;;;16.00;99.90;;;;;;5035514;28;20048;-76
2023/05/27 05:05:53;;;;;;;95.57;45.88;;;16.10;99.90;;;;;;5060837;28;20049;-76
2023/05/27 05:08:21;;;;;;;93.65;45.75;;;16.10;99.90;;;;;;5060431;28;20170;-78
2023/05/27 05:10:52;;;;;;;80.57;41.65;;;16.20;99.90;;;;;;5036094;28;20095;-77
2023/05/27 05:13:19;;;;;;;84.28;42.20;;;16.20;99.90;;;;;;5036124;28;20086;-76
2023/05/27 05:15:48;;;;;;;89.85;45.63;;;16.20;99.90;;;;;;5036046;28;20470;-77
2023/05/27 05:18:16;;;;;;;75.88;40.63;;;16.10;99.90;;;;;;5034021;28;20041;-76
2023/05/27 05:20:46;;;;;;;84.00;40.80;;;16.10;99.90;;;;;;5048524;28;20220;-78
2023/05/27 05:23:15;;;;;;;73.15;37.83;;;16.10;99.90;;;;;;5020720;28;20045;-78
2023/05/27 05:25:43;;;;;;;70.50;36.75;;;16.20;99.90;;;;;;5042292;28;20521;-76
2023/05/27 05:28:11;;;;;;;67.90;35.15;;;16.20;99.90;;;;;;5018777;28;20043;-78
2023/05/27 05:30:40;;;;;;;69.80;33.85;;;16.30;99.90;;;;;;5018027;28;20547;-77
2023/05/27 05:33:09;;;;;;;59.92;33.63;;;16.40;99.90;;;;;;5022255;28;20392;-77
2023/05/27 05:35:37;;;;;;;66.47;38.53;;;16.50;99.90;;;;;;5018808;28;20052;-78
2023/05/27 05:38:21;;;;;;;65.95;35.38;;;16.60;99.90;;;;;;5021907;28;20061;-79
2023/05/27 05:40:52;;;;;;;61.72;33.47;;;16.90;99.90;;;;;;5024520;28;20607;-77
2023/05/27 05:43:20;;;;;;;62.45;34.83;;;17.00;99.90;;;;;;5038347;28;20611;-78
2023/05/27 05:45:48;;;;;;;67.03;36.55;;;17.20;99.90;;;;;;5021612;28;20070;-78
2023/05/27 05:48:18;;;;;;;60.25;34.78;;;17.50;99.90;;;;;;5022573;28;22146;-76
2023/05/27 05:50:46;;;;;;;55.25;33.60;;;17.90;99.90;;;;;;5023189;28;20045;-78
2023/05/27 05:53:13;;;;;;;58.72;34.45;;;18.30;99.90;;;;;;5022566;28;20034;-75
2023/05/27 05:55:43;;;;;;;57.13;32.70;;;18.70;99.90;;;;;;5022417;28;20489;-79
2023/05/27 05:58:11;;;;;;;51.15;31.20;;;19.20;99.90;;;;;;5021224;28;20042;-76
2023/05/27 06:00:39;;;;;;;51.88;30.42;;;19.30;99.90;;;;;;5036560;28;20037;-76
2023/05/27 06:03:45;;;;;;;46.33;27.92;;;19.30;99.90;;;;;;5022602;28;20041;-78
2023/05/27 06:06:26;;;;;;;47.33;26.30;;;19.40;99.90;;;;;;5021837;28;20041;-78
2023/05/27 06:09:12;;;;;;;52.67;26.10;;;19.50;99.90;;;;;;5038501;28;20106;-79
2023/05/27 06:11:41;;;;;;;56.63;27.48;;;19.50;99.90;;;;;;5033782;28;20064;-78
2023/05/27 06:14:09;;;;;;;56.75;28.00;;;19.50;99.90;;;;;;5020772;28;20049;-78
2023/05/27 06:16:37;;;;;;;50.78;27.77;;;19.30;99.90;;;;;;5037200;28;20069;-78
2023/05/27 06:19:05;;;;;;;55.20;29.92;;;19.20;99.90;;;;;;5020199;28;20646;-77
2023/05/27 06:21:33;;;;;;;51.28;28.20;;;19.10;99.90;;;;;;5021993;28;20041;-78
2023/05/27 06:24:33;;;;;;;50.28;27.75;;;19.10;99.90;;;;;;5038396;28;20041;-76
2023/05/27 06:27:18;;;;;;;47.35;27.30;;;19.30;99.90;;;;;;5021308;28;20081;-77
2023/05/27 06:29:47;;;;;;;52.45;30.00;;;19.50;99.90;;;;;;5037183;28;20285;-79
2023/05/27 06:32:20;;;;;;;58.33;31.83;;;19.60;99.90;;;;;;5019202;28;20051;-79
2023/05/27 06:34:48;;;;;;;48.13;27.85;;;19.50;99.90;;;;;;5021772;28;20049;-77
2023/05/27 06:37:15;;;;;;;48.88;28.25;;;19.10;99.90;;;;;;5039394;28;20050;-77
2023/05/27 06:39:43;;;;;;;54.80;32.88;;;19.00;99.90;;;;;;5019426;28;20437;-77
2023/05/27 06:42:11;;;;;;;57.38;32.72;;;19.00;99.90;;;;;;5035749;28;20776;-76
2023/05/27 06:45:13;;;;;;;60.80;35.13;;;19.10;99.90;;;;;;4994634;28;20041;-78
2023/05/27 06:47:41;;;;;;;65.18;36.83;;;19.20;99.90;;;;;;5022317;28;20062;-77
2023/05/27 06:50:10;;;;;;;66.40;37.28;;;19.20;99.90;;;;;;5022189;28;20040;-77
2023/05/27 06:52:39;;;;;;;69.20;42.20;;;19.20;99.90;;;;;;5025547;28;20095;-76
2023/05/27 06:55:29;;;;;;;70.50;40.92;;;19.10;99.90;;;;;;5027577;28;20041;-79
2023/05/27 06:58:35;;;;;;;74.25;43.08;;;19.00;99.90;;;;;;5033314;28;20044;-77
2023/05/27 07:01:08;;;;;;;80.38;43.17;;;19.00;99.90;;;;;;5047870;28;20069;-76
2023/05/27 07:03:47;;;;;;;71.68;42.88;;;18.90;99.90;;;;;;5024288;28;20042;-78
2023/05/27 07:06:20;;;;;;;68.68;40.83;;;18.80;99.90;;;;;;5040785;28;20543;-78
2023/05/27 07:08:51;;;;;;;61.75;42.78;;;18.80;99.90;;;;;;5020981;28;20508;-77
2023/05/27 07:11:34;;;;;;;62.67;41.85;;;18.70;99.90;;;;;;5020768;28;20041;-78
2023/05/27 07:14:06;;;;;;;68.53;44.42;;;18.80;99.90;;;;;;5024137;28;20064;-76
2023/05/27 07:16:37;;;;;;;60.13;40.95;;;18.80;99.90;;;;;;5043051;28;20053;-78
2023/05/27 07:19:07;;;;;;;58.70;40.83;;;18.80;99.90;;;;;;5025706;28;20560;-78
2023/05/27 07:21:42;;;;;;;52.57;37.60;;;18.70;99.90;;;;;;5027252;28;20060;-76
2023/05/27 07:24:15;;;;;;;57.00;36.97;;;18.70;99.90;;;;;;5028566;28;20275;-78
2023/05/27 07:26:43;;;;;;;51.47;36.35;;;18.80;99.90;;;;;;5018730;28;20148;-79
2023/05/27 07:29:11;;;;;;;51.50;37.00;;;19.10;99.90;;;;;;5037910;28;20037;-76
2023/05/27 07:32:01;;;;;;;48.20;35.42;;;19.30;99.90;;;;;;5028313;28;20524;-77
2023/05/27 07:34:31;;;;;;;52.20;36.70;;;19.60;99.90;;;;;;5043808;28;20037;-75
2023/05/27 07:36:59;;;;;;;49.35;35.00;;;19.70;99.90;;;;;;5027669;28;20147;-77
2023/05/27 07:39:27;;;;;;;48.67;34.67;;;19.60;99.90;;;;;;5045826;28;20049;-76
2023/05/27 07:41:55;;;;;;;41.90;32.30;;;19.70;99.90;;;;;;5041172;28;20037;-77
2023/05/27 07:44:23;;;;;;;45.47;32.83;;;19.70;99.90;;;;;;5037202;28;20088;-78
2023/05/27 07:46:52;;;;;;;41.95;31.15;;;19.90;99.90;;;;;;5037145;28;20049;-77
2023/05/27 07:49:22;;;;;;;43.78;30.55;;;20.10;99.90;;;;;;5019601;28;20052;-78
2023/05/27 07:52:02;;;;;;;42.05;29.88;;;20.20;99.90;;;;;;5037015;28;20037;-78
2023/05/27 07:54:30;;;;;;;37.08;28.95;;;20.20;99.90;;;;;;5018670;28;20556;-77
2023/05/27 07:56:58;;;;;;;42.28;29.23;;;20.00;99.90;;;;;;5037529;28;20051;-78
2023/05/27 08:02:01;;;;;;;34.47;26.45;;;19.70;99.90;;;;;;5056633;28;20047;-85
2023/05/27 08:04:32;;;;;;;33.92;23.95;;;19.80;99.90;;;;;;5056346;28;20044;-85
2023/05/27 08:07:18;;;;;;;33.17;23.80;;;19.90;99.90;;;;;;5053096;28;20055;-87
2023/05/27 08:10:21;;;;;;;53.65;38.10;;;19.90;99.90;;;;;;4976472;28;20374;-85
2023/05/27 08:13:07;;;;;;;29.50;20.33;;;20.10;99.90;;;;;;5063889;28;20116;-80
2023/05/27 08:16:08;;;;;;;25.48;17.65;;;20.20;99.90;;;;;;5020843;28;20368;-81
2023/05/27 08:18:54;;;;;;;25.42;19.58;;;20.20;99.90;;;;;;5055503;28;20056;-80
2023/05/27 08:21:32;;;;;;;21.35;18.52;;;20.30;99.90;;;;;;5057599;28;20513;-82
2023/05/27 08:24:21;;;;;;;29.50;23.73;;;20.60;99.90;;;;;;5067622;28;20047;-81
2023/05/27 08:27:15;;;;;;;25.30;20.38;;;21.20;99.90;;;;;;5070379;28;20754;-82
2023/05/27 08:29:56;;;;;;;24.27;20.98;;;21.50;99.90;;;;;;5062593;28;20067;-81
2023/05/27 08:32:32;;;;;;;24.27;19.52;;;21.40;99.90;;;;;;5056992;28;20045;-81
2023/05/27 08:35:00;;;;;;;20.92;16.63;;;21.40;99.90;;;;;;5073384;28;20060;-83
2023/05/27 08:37:29;;;;;;;23.13;16.38;;;21.40;99.90;;;;;;5053384;28;20040;-82
2023/05/27 08:39:58;;;;;;;20.90;15.75;;;21.10;99.90;;;;;;5054024;28;20391;-82
2023/05/27 08:42:34;;;;;;;18.05;15.52;;;20.80;99.90;;;;;;5055984;28;20042;-82
2023/05/27 08:45:03;;;;;;;18.75;15.23;;;20.60;99.90;;;;;;5082897;28;20052;-82
2023/05/27 08:47:31;;;;;;;19.77;16.20;;;20.60;99.90;;;;;;5063636;28;20060;-80
2023/05/27 08:49:59;;;;;;;17.33;15.52;;;20.60;99.90;;;;;;5062650;28;20063;-80
2023/05/27 08:52:30;;;;;;;23.98;17.63;;;20.60;99.90;;;;;;5052600;28;20037;-83
2023/05/27 08:54:58;;;;;;;17.55;15.13;;;20.60;99.90;;;;;;5048845;28;20042;-80
2023/05/27 08:57:30;;;;;;;16.88;14.60;;;20.60;99.90;;;;;;5070073;28;20048;-80
2023/05/27 09:00:08;;;;;;;;;;;;;;;;;;;;;
2023/05/27 09:02:39;;;;;;;20.02;16.85;;;20.60;99.90;;;;;;5051494;28;20515;-80
2023/05/27 09:05:07;;;;;;;17.80;15.98;;;20.70;99.90;;;;;;5044780;28;20137;-80
2023/05/27 09:07:37;;;;;;;17.85;15.20;;;20.90;99.90;;;;;;5049456;28;20049;-80
2023/05/27 09:10:07;;;;;;;17.98;15.05;;;21.30;99.90;;;;;;5050517;28;20462;-79
2023/05/27 09:12:35;;;;;;;16.98;15.18;;;21.50;99.90;;;;;;5051133;28;20048;-80
2023/05/27 09:15:03;;;;;;;19.15;16.25;;;21.40;99.90;;;;;;5050687;28;20523;-79
2023/05/27 09:17:31;;;;;;;16.63;14.93;;;21.20;99.90;;;;;;5052495;28;20051;-80
2023/05/27 09:19:59;;;;;;;20.52;16.40;;;21.30;99.90;;;;;;5053587;28;20037;-79
2023/05/27 09:22:29;;;;;;;19.02;16.08;;;21.20;99.90;;;;;;5055269;28;20131;-81
2023/05/27 09:24:59;;;;;;;22.20;17.27;;;21.40;99.90;;;;;;5071067;28;20045;-79
2023/05/27 09:27:27;;;;;;;19.45;15.57;;;21.70;99.90;;;;;;5066589;28;20084;-79
2023/05/27 09:29:54;;;;;;;23.10;17.23;;;21.80;99.90;;;;;;5068056;28;20515;-78
2023/05/27 09:32:26;;;;;;;18.60;15.82;;;22.10;99.90;;;;;;5070660;28;20041;-80
2023/05/27 09:34:54;;;;;;;19.40;17.35;;;22.20;99.90;;;;;;5071720;28;20043;-81
2023/05/27 09:37:25;;;;;;;21.40;17.88;;;22.50;99.90;;;;;;5051016;28;20048;-81
2023/05/27 09:39:53;;;;;;;20.20;18.10;;;22.80;99.90;;;;;;5049334;28;20086;-80
2023/05/27 09:42:21;;;;;;;23.98;20.58;;;23.10;99.90;;;;;;5058634;28;20446;-80
2023/05/27 09:44:49;;;;;;;23.45;18.50;;;23.20;99.90;;;;;;5054899;28;20041;-81
2023/05/27 09:47:20;;;;;;;23.40;18.88;;;23.00;99.90;;;;;;5048354;28;20047;-81
2023/05/27 09:49:53;;;;;;;20.15;17.77;;;23.00;99.90;;;;;;5051450;28;20044;-80
2023/05/27 09:52:22;;;;;;;26.23;21.13;;;22.80;99.90;;;;;;5054776;28;20094;-80
2023/05/27 09:54:51;;;;;;;24.48;21.70;;;22.60;99.90;;;;;;5068782;28;20051;-79
2023/05/27 09:57:21;;;;;;;26.05;21.20;;;22.00;99.90;;;;;;5059989;28;20045;-80
2023/05/27 09:59:50;;;;;;;24.20;20.88;;;21.60;99.90;;;;;;5037895;28;20381;-80
2023/05/27 10:02:21;;;;;;;21.63;19.33;;;21.30;99.90;;;;;;5064725;28;20260;-80
2023/05/27 10:04:50;;;;;;;22.02;19.67;;;21.20;99.90;;;;;;5069357;28;20102;-80
2023/05/27 10:07:22;;;;;;;22.05;18.33;;;21.20;99.90;;;;;;5050368;28;20041;-80
2023/05/27 10:09:50;;;;;;;24.45;20.02;;;21.40;99.90;;;;;;5059216;28;20119;-80
2023/05/27 10:12:18;;;;;;;21.60;16.50;;;21.50;99.90;;;;;;5064659;28;20051;-80
2023/05/27 10:14:49;;;;;;;21.15;16.65;;;21.90;99.90;;;;;;5056637;28;20044;-80
2023/05/27 10:17:17;;;;;;;20.65;16.58;;;22.20;99.90;;;;;;5064962;28;20358;-79
2023/05/27 10:19:58;;;;;;;20.00;16.38;;;22.60;99.90;;;;;;5070542;28;20064;-80
2023/05/27 10:22:25;;;;;;;16.98;15.18;;;23.00;99.90;;;;;;5048327;28;20148;-81
2023/05/27 10:24:53;;;;;;;17.48;15.02;;;23.00;99.90;;;;;;5050545;28;20033;-81
2023/05/27 10:27:22;;;;;;;16.08;14.32;;;23.00;99.90;;;;;;5068374;28;20053;-81
2023/05/27 10:29:59;;;;;;;16.80;15.10;;;22.70;99.90;;;;;;5064759;28;20052;-80
2023/05/27 10:32:27;;;;;;;20.60;17.75;;;22.50;99.90;;;;;;5068705;28;20094;-81
2023/05/27 10:34:55;;;;;;;17.05;15.18;;;22.10;99.90;;;;;;5059184;28;20513;-82
2023/05/27 10:37:24;;;;;;;20.83;15.35;;;21.80;99.90;;;;;;5064660;28;20048;-82
2023/05/27 10:39:55;;;;;;;17.13;15.27;;;21.80;99.90;;;;;;5070090;28;20428;-83
2023/05/27 10:42:24;;;;;;;20.52;17.25;;;21.60;99.90;;;;;;5069339;28;20055;-81
2023/05/27 10:45:03;;;;;;;21.15;18.13;;;21.80;99.90;;;;;;5068709;28;20049;-83
2023/05/27 10:47:35;;;;;;;21.02;15.57;;;22.10;99.90;;;;;;5068462;28;20076;-82
2023/05/27 10:50:11;;;;;;;19.40;15.80;;;22.50;99.90;;;;;;5065823;28;20555;-83
2023/05/27 10:52:40;;;;;;;19.75;15.13;;;22.80;99.90;;;;;;5043464;28;20182;-82
2023/05/27 10:55:08;;;;;;;18.35;14.93;;;22.70;99.90;;;;;;5063468;28;20090;-81
2023/05/27 10:57:35;;;;;;;18.52;15.02;;;22.70;99.90;;;;;;5067651;28;20037;-79
2023/05/27 11:00:08;;;;;;;18.52;14.27;;;22.60;99.90;;;;;;5067862;28;20064;-80
2023/05/27 11:02:40;;;;;;;18.45;14.50;;;22.50;99.90;;;;;;5067501;28;20041;-80
2023/05/27 11:05:11;;;;;;;18.70;16.58;;;22.50;99.90;;;;;;5069329;28;20049;-80
2023/05/27 11:07:40;;;;;;;19.23;14.60;;;22.60;99.90;;;;;;5064974;28;20223;-79
2023/05/27 11:10:10;;;;;;;17.45;14.07;;;22.70;99.90;;;;;;5066938;28;20075;-79
2023/05/27 11:12:37;;;;;;;17.08;14.35;;;22.70;99.90;;;;;;5068562;28;20040;-80
2023/05/27 11:15:06;;;;;;;14.85;13.35;;;22.90;99.90;;;;;;5068804;28;20040;-81
2023/05/27 11:17:34;;;;;;;18.77;13.52;;;23.00;99.90;;;;;;5069048;28;20631;-81
2023/05/27 11:20:05;;;;;;;19.10;15.38;;;23.30;99.90;;;;;;5072655;28;20488;-79
2023/05/27 11:22:34;;;;;;;17.73;15.77;;;23.60;99.90;;;;;;5069172;28;20064;-80
2023/05/27 11:25:05;;;;;;;18.52;15.57;;;23.90;99.90;;;;;;5068551;28;20036;-80
2023/05/27 11:27:37;;;;;;;23.17;17.55;;;24.20;99.90;;;;;;5068524;28;20403;-81
2023/05/27 11:30:11;;;;;;;18.77;15.57;;;24.50;99.90;;;;;;5066953;28;20147;-80
2023/05/27 11:32:38;;;;;;;15.98;13.88;;;24.70;99.90;;;;;;5068924;28;20056;-80
2023/05/27 11:35:14;;;;;;;22.85;15.85;;;25.00;99.90;;;;;;5069194;28;20119;-80
2023/05/27 11:37:41;;;;;;;16.48;14.75;;;25.10;99.90;;;;;;5048924;28;20041;-81
2023/05/27 11:40:12;;;;;;;16.92;13.82;;;25.10;99.90;;;;;;5043103;28;20039;-82
2023/05/27 11:42:46;;;;;;;16.13;13.68;;;25.20;99.90;;;;;;5042990;28;20045;-81
2023/05/27 11:45:17;;;;;;;16.13;14.43;;;25.10;99.90;;;;;;5047906;28;20047;-82
2023/05/27 11:47:46;;;;;;;20.25;15.90;;;24.80;99.90;;;;;;5048549;28;20037;-81
2023/05/27 11:50:19;;;;;;;22.00;14.55;;;24.50;99.90;;;;;;5047314;28;20040;-81
2023/05/27 11:52:54;;;;;;;21.48;15.88;;;24.10;99.90;;;;;;5045167;28;20044;-80
2023/05/27 11:55:22;;;;;;;22.75;15.85;;;23.60;99.90;;;;;;5044644;28;20087;-81
2023/05/27 11:57:50;;;;;;;16.85;14.95;;;23.30;99.90;;;;;;5048021;28;20068;-81
2023/05/27 12:00:19;;;;;;;23.83;15.68;;;23.20;99.90;;;;;;5046607;28;20411;-81
2023/05/27 12:02:46;;;;;;;18.55;15.90;;;23.10;99.90;;;;;;5048408;28;20041;-81
2023/05/27 12:05:14;;;;;;;19.15;16.85;;;23.20;99.90;;;;;;5047952;28;20113;-82
2023/05/27 12:07:44;;;;;;;21.77;16.88;;;23.30;99.90;;;;;;5045801;28;20048;-82
2023/05/27 12:10:11;;;;;;;21.75;17.67;;;23.30;99.90;;;;;;5058907;28;20098;-81
2023/05/27 12:12:41;;;;;;;21.23;17.52;;;23.20;99.90;;;;;;5062346;28;20040;-82
2023/05/27 12:15:09;;;;;;;21.17;17.55;;;23.40;99.90;;;;;;5063336;28;20444;-81
2023/05/27 12:17:37;;;;;;;21.77;18.92;;;23.50;99.90;;;;;;5062628;28;20048;-79
2023/05/27 12:20:06;;;;;;;21.33;18.35;;;23.30;99.90;;;;;;5063968;28;20601;-81
2023/05/27 12:22:33;;;;;;;22.90;17.70;;;23.30;99.90;;;;;;5063251;28;20067;-81
2023/05/27 12:25:04;;;;;;;27.70;19.73;;;23.20;99.90;;;;;;5063100;28;20123;-81
2023/05/27 12:27:31;;;;;;;24.20;19.33;;;23.10;99.90;;;;;;5061612;28;20529;-80
2023/05/27 12:29:59;;;;;;;21.63;17.02;;;23.20;99.90;;;;;;5063185;28;20075;-80
2023/05/27 12:32:26;;;;;;;18.70;15.05;;;23.20;99.90;;;;;;5044683;28;20113;-80
2023/05/27 12:34:54;;;;;;;23.52;16.40;;;23.10;99.90;;;;;;5064503;28;20369;-80
2023/05/27 12:37:21;;;;;;;18.50;15.85;;;23.10;99.90;;;;;;5063729;28;20040;-81
2023/05/27 12:39:49;;;;;;;18.88;15.40;;;23.00;99.90;;;;;;5063926;28;20047;-82
2023/05/27 12:42:17;;;;;;;19.10;15.90;;;23.00;99.90;;;;;;5057434;28;20049;-79
2023/05/27 12:44:46;;;;;;;16.10;14.38;;;23.30;99.90;;;;;;5051792;28;20447;-81
2023/05/27 12:47:13;;;;;;;15.15;13.52;;;23.50;99.90;;;;;;5043044;28;20041;-82